createdAt,value
2019-03-15T00:00:42.714Z,90.80
2019-03-15T00:03:20.186Z,90.30
2019-03-15T00:05:56.955Z,90.30
2019-03-15T00:08:33.611Z,90.60
2019-03-15T00:11:10.301Z,90.90
2019-03-15T00:13:47.157Z,90.70
2019-03-15T00:16:23.683Z,89.90
2019-03-15T00:19:00.198Z,90.20
2019-03-15T00:21:36.881Z,89.70
2019-03-15T00:24:15.158Z,88.80
2019-03-15T00:26:52.200Z,90.20
2019-03-15T00:29:29.070Z,90.50
2019-03-15T00:32:05.684Z,89.90
2019-03-15T00:34:42.763Z,89.60
2019-03-15T00:37:20.676Z,87.70
2019-03-15T00:39:58.332Z,87.30
2019-03-15T00:42:34.723Z,89.10
2019-03-15T00:45:12.643Z,87.40
2019-03-15T00:47:49.549Z,87.00
2019-03-15T00:50:26.329Z,85.90
2019-03-15T00:53:03.145Z,83.70
2019-03-15T00:55:40.178Z,83.00
2019-03-15T00:58:16.649Z,83.50
2019-03-15T01:00:53.292Z,82.40
2019-03-15T01:03:29.988Z,80.40
2019-03-15T01:06:06.675Z,79.70
2019-03-15T01:08:43.575Z,79.90
2019-03-15T01:11:20.343Z,80.20
2019-03-15T01:13:57.373Z,78.40
2019-03-15T01:16:34.701Z,77.90
2019-03-15T01:19:11.638Z,75.90
2019-03-15T01:21:48.370Z,75.80
2019-03-15T01:24:25.238Z,76.10
2019-03-15T01:27:02.305Z,76.60
2019-03-15T01:29:38.822Z,74.00
2019-03-15T01:32:15.492Z,72.60
2019-03-15T01:34:53.347Z,72.50
2019-03-15T01:37:30.269Z,70.70
2019-03-15T01:40:07.024Z,70.80
2019-03-15T01:42:43.843Z,70.60
2019-03-15T01:45:20.443Z,70.10
2019-03-15T01:47:58.262Z,70.80
2019-03-15T01:50:36.484Z,69.40
2019-03-15T01:53:13.529Z,71.30
2019-03-15T01:55:50.528Z,70.00
2019-03-15T01:58:27.661Z,70.50
2019-03-15T02:01:04.639Z,67.30
2019-03-15T02:03:41.486Z,67.60
2019-03-15T02:06:18.681Z,68.90
2019-03-15T02:08:55.824Z,67.80
2019-03-15T02:11:32.383Z,68.10
2019-03-15T02:14:09.500Z,66.00
2019-03-15T02:16:45.289Z,67.50
2019-03-15T02:19:22.158Z,67.10
2019-03-15T02:21:58.731Z,67.00
2019-03-15T02:24:36.546Z,66.70
2019-03-15T02:27:13.478Z,65.60
2019-03-15T02:29:50.293Z,64.40
2019-03-15T02:32:27.121Z,65.20
2019-03-15T02:35:04.069Z,66.20
2019-03-15T02:37:42.521Z,64.40
2019-03-15T02:40:19.224Z,66.30
2019-03-15T02:42:56.455Z,63.70
2019-03-15T02:45:35.173Z,64.10
2019-03-15T02:48:13.485Z,65.60
2019-03-15T02:50:50.071Z,63.60
2019-03-15T02:53:27.171Z,65.40
2019-03-15T02:56:04.921Z,65.20
2019-03-15T02:58:41.507Z,64.90
2019-03-15T03:01:18.256Z,63.10
2019-03-15T03:03:54.837Z,61.40
2019-03-15T03:06:31.518Z,62.20
2019-03-15T03:09:09.017Z,60.00
2019-03-15T03:11:45.392Z,60.70
2019-03-15T03:14:22.648Z,59.80
2019-03-15T03:16:59.812Z,62.20
2019-03-15T03:19:36.359Z,60.70
2019-03-15T03:22:13.366Z,62.60
2019-03-15T03:24:50.907Z,60.00
2019-03-15T03:27:27.908Z,60.40
2019-03-15T03:30:05.126Z,59.90
2019-03-15T03:32:44.167Z,59.60
2019-03-15T03:35:20.363Z,61.30
2019-03-15T03:37:57.108Z,59.90
2019-03-15T03:40:36.391Z,58.70
2019-03-15T03:43:14.920Z,59.00
2019-03-15T03:45:51.866Z,59.30
2019-03-15T03:48:31.189Z,58.90
2019-03-15T03:51:08.740Z,60.10
2019-03-15T03:53:45.430Z,59.90
2019-03-15T03:56:22.186Z,59.90
2019-03-15T03:58:58.832Z,59.50
2019-03-15T04:01:35.765Z,60.30
2019-03-15T04:04:12.955Z,58.40
2019-03-15T04:06:49.962Z,58.10
2019-03-15T04:09:26.849Z,58.20
2019-03-15T04:12:03.766Z,57.60
2019-03-15T04:14:41.024Z,58.50
2019-03-15T04:17:17.814Z,59.20
2019-03-15T04:19:55.428Z,59.70
2019-03-15T04:22:31.900Z,57.00
2019-03-15T04:25:09.052Z,57.50
2019-03-15T04:27:46.858Z,58.20
2019-03-15T04:30:24.865Z,59.10
2019-03-15T04:33:03.633Z,57.00
2019-03-15T04:35:40.871Z,58.10
2019-03-15T04:38:18.695Z,58.00
2019-03-15T04:40:55.582Z,56.20
2019-03-15T04:43:32.119Z,57.70
2019-03-15T04:46:08.312Z,56.50
2019-03-15T04:48:45.664Z,56.20
2019-03-15T04:51:22.450Z,57.20
2019-03-15T04:53:59.632Z,57.00
2019-03-15T04:56:36.225Z,56.80
2019-03-15T04:59:13.656Z,55.50
2019-03-15T05:01:50.697Z,54.00
2019-03-15T05:04:27.361Z,53.70
2019-03-15T05:07:06.133Z,55.50
2019-03-15T05:09:42.749Z,52.30
2019-03-15T05:12:20.053Z,53.40
2019-03-15T05:14:56.231Z,55.20
2019-03-15T05:17:33.156Z,52.10
2019-03-15T05:20:10.048Z,51.50
2019-03-15T05:22:46.854Z,50.50
2019-03-15T05:25:23.635Z,49.30
2019-03-15T05:28:00.549Z,50.40
2019-03-15T05:30:37.092Z,49.00
2019-03-15T05:33:14.632Z,51.50
2019-03-15T05:35:51.768Z,50.20
2019-03-15T05:38:28.949Z,51.50
2019-03-15T05:41:05.551Z,48.60
2019-03-15T05:43:41.981Z,46.80
2019-03-15T05:46:18.385Z,46.90
2019-03-15T05:48:55.207Z,46.60
2019-03-15T05:51:31.963Z,45.80
2019-03-15T05:54:09.092Z,45.90
2019-03-15T05:56:45.742Z,49.00
2019-03-15T05:59:22.820Z,46.90
2019-03-15T06:01:59.476Z,48.00
2019-03-15T06:04:36.206Z,50.00
2019-03-15T06:07:12.740Z,45.90
2019-03-15T06:09:50.423Z,46.40
2019-03-15T06:12:27.107Z,46.20
2019-03-15T06:15:06.670Z,46.00
2019-03-15T06:17:43.320Z,46.70
2019-03-15T06:20:19.860Z,46.00
2019-03-15T06:22:56.245Z,45.50
2019-03-15T06:25:32.635Z,46.20
2019-03-15T06:28:09.406Z,45.70
2019-03-15T06:30:46.156Z,46.20
2019-03-15T06:33:22.757Z,44.60
2019-03-15T06:35:59.467Z,46.10
2019-03-15T06:38:36.835Z,44.50
2019-03-15T06:41:14.497Z,46.00
2019-03-15T06:43:51.733Z,44.10
2019-03-15T06:46:28.110Z,44.60
2019-03-15T06:49:04.894Z,45.00
2019-03-15T06:51:44.080Z,44.10
2019-03-15T06:54:20.976Z,44.00
2019-03-15T06:56:57.898Z,42.90
2019-03-15T06:59:34.996Z,43.70
2019-03-15T07:02:11.516Z,43.70
2019-03-15T07:04:48.645Z,42.70
2019-03-15T07:07:25.456Z,43.20
2019-03-15T07:10:02.112Z,41.80
2019-03-15T07:12:40.108Z,43.40
2019-03-15T07:15:18.085Z,44.30
2019-03-15T07:17:55.228Z,42.70
2019-03-15T07:20:32.093Z,43.90
2019-03-15T07:23:08.717Z,43.80
2019-03-15T07:25:45.660Z,43.50
2019-03-15T07:28:22.395Z,42.70
2019-03-15T07:30:59.315Z,42.30
2019-03-15T07:33:38.212Z,41.60
2019-03-15T07:36:14.856Z,43.10
2019-03-15T07:38:51.335Z,44.60
2019-03-15T07:41:29.942Z,43.50
2019-03-15T07:44:06.814Z,44.10
2019-03-15T07:46:43.518Z,43.30
2019-03-15T07:49:20.410Z,42.20
2019-03-15T07:51:56.834Z,43.30
2019-03-15T07:54:45.379Z,41.20
2019-03-15T07:57:22.366Z,42.30
2019-03-15T07:59:59.385Z,41.90
2019-03-15T08:02:36.290Z,41.70
2019-03-15T08:05:13.514Z,42.60
2019-03-15T08:07:50.294Z,40.60
2019-03-15T08:10:27.405Z,43.20
2019-03-15T08:13:03.942Z,41.90
2019-03-15T08:15:40.370Z,41.30
2019-03-15T08:18:17.318Z,42.10
2019-03-15T08:20:54.492Z,42.60
2019-03-15T08:23:31.072Z,41.10
2019-03-15T08:26:07.983Z,41.70
2019-03-15T08:28:44.599Z,42.40
2019-03-15T08:31:23.353Z,42.60
2019-03-15T08:33:59.939Z,42.70
2019-03-15T08:36:36.583Z,44.30
2019-03-15T08:39:13.663Z,44.70
2019-03-15T08:41:50.449Z,45.70
2019-03-15T08:44:26.785Z,44.90
2019-03-15T08:47:03.594Z,46.70
2019-03-15T08:49:39.998Z,44.30
2019-03-15T08:52:16.962Z,45.20
2019-03-15T08:55:04.557Z,44.90
2019-03-15T08:57:32.650Z,45.60
2019-03-15T09:00:09.838Z,44.00
2019-03-15T09:02:47.224Z,44.20
2019-03-15T09:05:23.932Z,43.10
2019-03-15T09:08:02.056Z,42.50
2019-03-15T09:13:11.569Z,43.40
2019-03-15T09:15:50.289Z,43.40
2019-03-15T09:18:29.657Z,43.70
2019-03-15T09:21:07.773Z,43.50
2019-03-15T09:23:47.590Z,42.90
2019-03-15T09:26:25.759Z,42.30
2019-03-15T09:29:04.081Z,43.70
2019-03-15T09:31:47.781Z,42.00
2019-03-15T09:34:22.248Z,43.00
2019-03-15T09:37:00.600Z,42.50
2019-03-15T09:39:38.949Z,43.50
2019-03-15T09:42:17.278Z,41.70
2019-03-15T09:44:55.913Z,41.90
2019-03-15T09:47:34.015Z,42.60
2019-03-15T09:50:22.914Z,42.10
2019-03-15T09:52:52.610Z,44.50
2019-03-15T09:55:33.327Z,40.10
2019-03-15T09:58:10.280Z,41.00
2019-03-15T10:00:49.053Z,41.30
2019-03-15T10:03:27.207Z,41.40
2019-03-15T10:06:15.435Z,40.30
2019-03-15T10:08:45.509Z,41.50
2019-03-15T10:11:24.996Z,41.60
2019-03-15T10:14:03.162Z,42.50
2019-03-15T10:16:41.660Z,43.00
2019-03-15T10:19:23.137Z,41.90
2019-03-15T10:22:01.847Z,42.80
2019-03-15T10:24:39.729Z,42.00
2019-03-15T10:27:18.357Z,41.60
2019-03-15T10:29:56.878Z,42.50
2019-03-15T10:32:35.318Z,42.40
2019-03-15T10:35:14.597Z,43.50
2019-03-15T10:37:53.054Z,45.00
2019-03-15T10:40:31.662Z,47.60
2019-03-15T10:43:10.064Z,49.20
2019-03-15T10:45:48.891Z,50.40
2019-03-15T10:48:28.442Z,51.40
2019-03-15T10:51:07.126Z,50.00
2019-03-15T10:53:45.485Z,54.00
2019-03-15T10:56:23.754Z,53.40
2019-03-15T10:59:02.475Z,50.90
2019-03-15T11:01:41.094Z,52.30
2019-03-15T11:04:19.825Z,54.10
2019-03-15T11:06:58.184Z,48.50
2019-03-15T11:09:36.973Z,50.30
2019-03-15T11:12:15.259Z,50.20
2019-03-15T11:14:54.105Z,47.50
2019-03-15T11:17:32.486Z,48.20
2019-03-15T11:20:11.544Z,49.40
2019-03-15T11:22:50.031Z,49.80
2019-03-15T11:25:28.797Z,51.70
2019-03-15T11:28:07.104Z,55.50
2019-03-15T11:30:45.522Z,56.50
2019-03-15T11:33:24.022Z,56.60
2019-03-15T11:36:03.509Z,55.80
2019-03-15T11:38:42.472Z,55.70
2019-03-15T11:41:21.229Z,57.20
2019-03-15T11:44:16.660Z,57.60
2019-03-15T11:46:55.398Z,57.00
2019-03-15T11:49:33.911Z,57.10
2019-03-15T11:52:12.426Z,59.10
2019-03-15T11:54:50.955Z,59.70
2019-03-15T11:57:29.627Z,60.50
2019-03-15T12:00:07.969Z,63.90
2019-03-15T12:02:46.833Z,59.70
2019-03-15T12:05:25.008Z,61.80
2019-03-15T12:08:03.739Z,63.80
2019-03-15T12:10:42.233Z,65.90
2019-03-15T12:13:20.801Z,65.00
2019-03-15T12:15:59.067Z,66.80
2019-03-15T12:21:17.118Z,67.40
2019-03-15T12:23:55.376Z,65.70
2019-03-15T12:26:40.267Z,67.50
2019-03-15T12:29:13.543Z,68.10
2019-03-15T12:31:52.223Z,65.20
2019-03-15T12:34:30.418Z,69.10
2019-03-15T12:37:09.455Z,68.10
2019-03-15T12:39:48.040Z,68.30
2019-03-15T12:42:25.828Z,66.40
2019-03-15T12:45:04.063Z,67.20
2019-03-15T12:47:42.543Z,68.20
2019-03-15T12:50:22.481Z,68.50
2019-03-15T12:53:01.005Z,70.40
2019-03-15T12:55:39.394Z,70.20
2019-03-15T12:58:17.827Z,68.10
2019-03-15T13:00:56.294Z,69.90
2019-03-15T13:03:34.694Z,69.30
2019-03-15T13:06:12.680Z,68.40
2019-03-15T13:08:51.271Z,69.10
2019-03-15T13:11:31.001Z,70.30
2019-03-15T13:14:09.136Z,69.90
2019-03-15T13:16:47.438Z,70.20
2019-03-15T13:19:26.232Z,69.30
2019-03-15T13:22:04.671Z,70.50
2019-03-15T13:24:43.340Z,69.90
2019-03-15T13:27:21.727Z,68.50
2019-03-15T13:30:00.419Z,67.70
2019-03-15T13:32:38.662Z,67.70
2019-03-15T13:35:17.792Z,68.00
2019-03-15T13:37:56.097Z,66.00
2019-03-15T13:40:34.840Z,66.00
2019-03-15T13:43:14.243Z,64.60
2019-03-15T13:45:52.722Z,64.00
2019-03-15T13:48:30.675Z,64.20
2019-03-15T13:51:09.038Z,64.50
2019-03-15T13:53:47.202Z,64.00
2019-03-15T13:56:25.975Z,63.90
2019-03-15T13:59:03.938Z,63.50
2019-03-15T14:01:42.525Z,65.80
2019-03-15T14:04:21.168Z,64.80
2019-03-15T14:06:59.710Z,65.00
2019-03-15T14:09:37.842Z,64.70
2019-03-15T14:12:16.451Z,64.40
2019-03-15T14:14:55.121Z,64.70
2019-03-15T14:17:33.687Z,65.70
2019-03-15T14:20:13.320Z,65.10
2019-03-15T14:22:51.801Z,65.70
2019-03-15T14:25:30.386Z,64.40
2019-03-15T14:28:08.826Z,66.00
2019-03-15T14:30:47.299Z,64.70
2019-03-15T14:33:25.630Z,65.00
2019-03-15T14:36:04.546Z,64.50
2019-03-15T14:38:43.115Z,64.30
2019-03-15T14:41:22.131Z,65.00
2019-03-15T14:44:00.302Z,65.40
2019-03-15T14:46:38.724Z,65.50
2019-03-15T14:49:17.043Z,65.00
2019-03-15T14:51:55.355Z,66.10
2019-03-15T14:54:33.646Z,67.10
2019-03-15T14:57:12.035Z,68.00
2019-03-15T14:59:50.717Z,69.60
2019-03-15T15:02:29.116Z,70.20
2019-03-15T15:05:07.641Z,70.90
2019-03-15T15:07:46.843Z,70.80
2019-03-15T15:10:25.006Z,71.10
2019-03-15T15:13:03.670Z,70.50
2019-03-15T15:15:43.100Z,70.60
2019-03-15T15:18:21.862Z,70.10
2019-03-15T15:21:00.499Z,72.10
2019-03-15T15:23:39.755Z,72.50
2019-03-15T15:26:17.643Z,73.50
2019-03-15T15:28:56.902Z,72.70
2019-03-15T15:31:35.423Z,72.60
2019-03-15T15:34:14.266Z,72.10
2019-03-15T15:36:52.526Z,72.00
2019-03-15T15:39:30.856Z,73.30
2019-03-15T15:42:08.895Z,73.50
2019-03-15T15:44:47.565Z,72.40
2019-03-15T15:47:25.712Z,71.40
2019-03-15T15:50:04.128Z,72.70
2019-03-15T15:52:42.632Z,72.70
2019-03-15T15:55:21.543Z,73.10
2019-03-15T15:57:59.860Z,72.90
2019-03-15T16:00:38.382Z,73.80
2019-03-15T16:03:16.592Z,73.70
2019-03-15T16:05:55.236Z,74.40
2019-03-15T16:08:33.792Z,73.70
2019-03-15T16:11:12.452Z,73.90
2019-03-15T16:13:50.922Z,72.80
2019-03-15T16:16:29.545Z,73.20
2019-03-15T16:19:08.290Z,72.50
2019-03-15T16:21:46.845Z,73.60
2019-03-15T16:24:25.562Z,73.60
2019-03-15T16:27:03.947Z,73.70
2019-03-15T16:29:42.888Z,74.90
2019-03-15T16:32:21.463Z,74.50
2019-03-15T16:35:00.617Z,73.30
2019-03-15T16:37:38.773Z,71.70
2019-03-15T16:40:17.549Z,71.30
2019-03-15T16:42:55.973Z,70.20
2019-03-15T16:45:34.329Z,68.60
2019-03-15T16:48:13.022Z,68.80
2019-03-15T16:50:51.948Z,68.90
2019-03-15T16:53:31.158Z,69.90
2019-03-15T16:56:10.072Z,68.80
2019-03-15T16:58:48.463Z,69.60
2019-03-15T17:01:26.714Z,69.70
2019-03-15T17:04:05.542Z,69.70
2019-03-15T17:06:43.120Z,69.70
2019-03-15T17:09:21.315Z,68.70
2019-03-15T17:11:59.463Z,68.10
2019-03-15T17:14:39.390Z,69.50
2019-03-15T17:17:17.268Z,69.00
2019-03-15T17:19:55.493Z,69.80
2019-03-15T17:22:33.519Z,69.30
2019-03-15T17:25:12.219Z,70.30
2019-03-15T17:27:50.736Z,69.00
2019-03-15T17:30:29.275Z,69.10
2019-03-15T17:33:07.700Z,69.90
2019-03-15T17:35:46.326Z,70.00
2019-03-15T17:38:24.544Z,69.70
2019-03-15T17:41:02.826Z,69.50
2019-03-15T17:43:41.409Z,69.50
2019-03-15T17:46:19.802Z,70.90
2019-03-15T17:48:58.413Z,71.60
2019-03-15T17:51:36.643Z,72.50
2019-03-15T17:54:15.398Z,73.40
2019-03-15T17:56:53.842Z,75.30
2019-03-15T17:59:31.926Z,74.30
2019-03-15T18:02:10.380Z,74.60
2019-03-15T18:04:49.002Z,72.80
2019-03-15T18:07:27.293Z,74.10
2019-03-15T18:10:05.869Z,74.20
2019-03-15T18:12:45.139Z,75.20
2019-03-15T18:15:23.850Z,75.20
2019-03-15T18:18:02.618Z,75.00
2019-03-15T18:20:40.964Z,75.40
2019-03-15T18:23:19.894Z,75.00
2019-03-15T18:25:58.234Z,74.90
2019-03-15T18:28:36.793Z,73.20
2019-03-15T18:31:14.977Z,71.70
2019-03-15T18:33:53.593Z,72.10
2019-03-15T18:36:31.559Z,72.20
2019-03-15T18:39:12.045Z,73.10
2019-03-15T18:41:50.635Z,73.40
2019-03-15T18:44:29.036Z,73.10
2019-03-15T18:47:07.539Z,72.60
2019-03-15T18:49:46.038Z,72.70
2019-03-15T18:52:24.412Z,72.60
2019-03-15T18:55:02.741Z,73.00
2019-03-15T18:57:41.383Z,73.50
2019-03-15T19:00:21.869Z,73.20
2019-03-15T19:03:00.476Z,74.20
2019-03-15T19:05:38.529Z,74.90
2019-03-15T19:08:17.143Z,73.70
2019-03-15T19:10:55.718Z,74.10
2019-03-15T19:13:34.234Z,74.80
2019-03-15T19:16:19.904Z,76.20
2019-03-15T19:18:52.531Z,77.30
2019-03-15T19:21:31.017Z,76.60
2019-03-15T19:24:09.353Z,77.20
2019-03-15T19:26:47.579Z,78.60
2019-03-15T19:29:25.849Z,78.60
2019-03-15T19:32:04.403Z,78.30
2019-03-15T19:34:42.753Z,77.60
2019-03-15T19:37:21.615Z,78.40
2019-03-15T19:39:59.721Z,78.10
2019-03-15T19:42:38.179Z,77.90
2019-03-15T19:45:17.394Z,77.80
2019-03-15T19:47:56.169Z,77.30
2019-03-15T19:50:34.583Z,78.10
2019-03-15T19:53:13.970Z,78.90
2019-03-15T19:55:52.485Z,79.10
2019-03-15T19:58:31.184Z,78.70
2019-03-15T20:01:09.412Z,78.20
2019-03-15T20:03:47.949Z,80.00
2019-03-15T20:06:26.294Z,79.50
2019-03-15T20:09:04.855Z,78.30
2019-03-15T20:11:43.426Z,78.70
2019-03-15T20:14:22.921Z,77.30
2019-03-15T20:17:01.347Z,78.30
2019-03-15T20:19:39.713Z,77.70
2019-03-15T20:22:21.043Z,78.80
2019-03-15T20:24:58.570Z,79.80
2019-03-15T20:27:37.166Z,80.20
2019-03-15T20:30:21.938Z,80.30
2019-03-15T20:32:57.328Z,80.80
2019-03-15T20:35:36.258Z,81.20
2019-03-15T20:38:14.915Z,81.20
2019-03-15T20:40:53.207Z,81.10
2019-03-15T20:43:32.177Z,81.30
2019-03-15T20:46:10.458Z,81.80
2019-03-15T20:48:48.762Z,81.60
2019-03-15T20:51:27.109Z,81.90
2019-03-15T20:54:05.745Z,82.20
2019-03-15T20:56:44.375Z,81.70
2019-03-15T20:59:22.788Z,81.90
2019-03-15T21:02:01.142Z,82.00
2019-03-15T21:04:39.688Z,82.50
2019-03-15T21:07:18.187Z,82.90
2019-03-15T21:09:57.847Z,82.40
2019-03-15T21:12:36.410Z,83.10
2019-03-15T21:15:15.307Z,82.80
2019-03-15T21:17:54.083Z,83.40
2019-03-15T21:20:32.358Z,81.90
2019-03-15T21:23:10.816Z,83.10
2019-03-15T21:25:49.908Z,82.50
2019-03-15T21:28:28.690Z,83.60
2019-03-15T21:31:07.132Z,83.60
2019-03-15T21:33:45.536Z,83.60
2019-03-15T21:36:23.849Z,84.00
2019-03-15T21:39:02.464Z,83.20
2019-03-15T21:41:41.212Z,82.90
2019-03-15T21:44:20.367Z,83.00
2019-03-15T21:46:58.825Z,82.90
2019-03-15T21:49:37.000Z,84.40
2019-03-15T21:52:15.331Z,84.00
2019-03-15T21:54:54.127Z,83.90
2019-03-15T21:57:32.232Z,83.30
2019-03-15T22:00:10.727Z,83.10
2019-03-15T22:02:49.172Z,83.50
2019-03-15T22:05:27.462Z,83.00
2019-03-15T22:08:06.053Z,82.40
2019-03-15T22:10:44.472Z,81.70
2019-03-15T22:13:22.906Z,81.80
2019-03-15T22:16:01.302Z,81.60
2019-03-15T22:18:39.484Z,82.40
2019-03-15T22:21:17.847Z,82.30
2019-03-15T22:23:56.507Z,83.20
2019-03-15T22:26:34.737Z,82.90
2019-03-15T22:29:13.266Z,83.60
2019-03-15T22:31:51.620Z,83.60
2019-03-15T22:34:29.883Z,83.40
2019-03-15T22:37:08.204Z,82.80
2019-03-15T22:39:46.765Z,82.40
2019-03-15T22:42:25.239Z,84.00
2019-03-15T22:45:04.470Z,84.50
2019-03-15T22:47:42.829Z,84.70
2019-03-15T22:50:21.163Z,84.50
2019-03-15T22:52:59.894Z,84.60
2019-03-15T22:55:37.854Z,84.70
2019-03-15T22:58:16.565Z,84.60
2019-03-15T23:00:55.380Z,85.30
2019-03-15T23:03:35.082Z,86.20
2019-03-15T23:06:13.940Z,86.80
2019-03-15T23:08:52.512Z,87.20
2019-03-15T23:11:30.785Z,87.00
2019-03-15T23:14:10.380Z,85.20
2019-03-15T23:16:48.772Z,84.70
2019-03-15T23:19:27.062Z,86.00
2019-03-15T23:22:05.379Z,86.00
2019-03-15T23:24:43.959Z,86.70
2019-03-15T23:27:22.441Z,87.10
2019-03-15T23:30:00.724Z,86.30
2019-03-15T23:32:39.162Z,87.20
2019-03-15T23:35:17.912Z,86.70
2019-03-15T23:37:56.171Z,86.60
2019-03-15T23:40:34.927Z,86.90
2019-03-15T23:43:13.372Z,86.80
2019-03-15T23:45:52.564Z,88.10
2019-03-15T23:48:30.861Z,87.40
2019-03-15T23:51:09.505Z,87.30
2019-03-15T23:53:47.645Z,87.50
2019-03-15T23:56:25.824Z,87.80
2019-03-15T23:59:04.289Z,87.20
